Terminal Aerodrome Forecast
Issued by NWS

Home | Current Version | Previous Version | Text Only | Print | Product List | Glossary On
Versions: 1 2 3 4 5 6 7 8 9 10 11 12 13 14 15 16 17 18 19 20 21 22 23
000
FTUS44 KHGX 240520
TAFSGR
TAF
KSGR 240520Z 2406/2506 16006KT P6SM SKC
     FM240900 14003KT P6SM SCT015
     FM241400 15006KT P6SM FEW020
     FM241900 15010KT P6SM VCTS SCT040CB
     FM250100 14005KT P6SM SCT250=

USA.gov is the U.S. government's official web portal to all federal, state and local government web resources and services.